Time;durP1;ratioP1;P1;durP2;ratioP2;P2;SDS_P1;SDS_P2;PMS_P1;PMS_P2;Temp;Humidity;BMP_temperature;BMP_pressure;BME280_temperature;BME280_humidity;BME280_pressure;Samples;Min_cycle;Max_cycle;Signal;HPM_P1;HPM_P2
2022/01/12 00:00:48;;;;;;;90.10;34.90;;;3.10;99.90;;;;;;5126664;27;20042;-81
2022/01/12 00:03:14;;;;;;;99.03;34.97;;;3.10;99.90;;;;;;5124167;27;20568;-82
2022/01/12 00:05:39;;;;;;;92.22;33.85;;;3.10;99.90;;;;;;5119693;27;20716;-81
2022/01/12 00:08:05;;;;;;;98.40;32.70;;;3.10;99.90;;;;;;5119038;27;20096;-82
2022/01/12 00:10:31;;;;;;;117.90;34.75;;;3.10;99.90;;;;;;5134757;27;20030;-82
2022/01/12 00:12:57;;;;;;;114.43;34.28;;;3.10;99.90;;;;;;5109907;27;20031;-82
2022/01/12 00:15:22;;;;;;;111.80;35.05;;;3.10;99.90;;;;;;5115736;27;20081;-81
2022/01/12 00:17:48;;;;;;;117.63;33.17;;;3.10;99.90;;;;;;5106537;27;20030;-82
2022/01/12 00:20:13;;;;;;;117.40;34.72;;;3.20;99.90;;;;;;5133570;27;20480;-82
2022/01/12 00:22:40;;;;;;;118.32;35.22;;;3.10;99.90;;;;;;5119503;27;20039;-82
2022/01/12 00:25:56;;;;;;;114.10;36.08;;;3.10;99.90;;;;;;5115639;27;20152;-82
2022/01/12 00:33:27;;;;;;;132.10;33.03;;;3.10;99.90;;;;;;5130335;27;20039;-82
2022/01/12 00:35:55;;;;;;;127.57;35.50;;;3.20;99.90;;;;;;5124806;27;20032;-82
2022/01/12 00:38:25;;;;;;;139.70;34.75;;;3.20;99.90;;;;;;5103355;28;20027;-82
2022/01/12 00:40:53;;;;;;;147.95;35.97;;;3.20;99.90;;;;;;5111123;27;20043;-81
2022/01/12 00:43:20;;;;;;;153.00;35.15;;;3.20;99.90;;;;;;5104524;27;20072;-82
2022/01/12 00:45:47;;;;;;;176.32;36.15;;;3.20;99.90;;;;;;5113239;27;20035;-81
2022/01/12 00:48:14;;;;;;;122.10;35.45;;;3.20;99.90;;;;;;5109989;27;20520;-82
2022/01/12 00:50:40;;;;;;;128.25;34.47;;;3.20;99.90;;;;;;5109510;28;20118;-82
2022/01/12 00:53:06;;;;;;;148.95;35.10;;;3.20;99.90;;;;;;5109770;27;20027;-82
2022/01/12 00:55:32;;;;;;;139.95;35.33;;;3.20;99.90;;;;;;5131300;27;20042;-82
2022/01/12 00:57:58;;;;;;;130.95;34.70;;;3.20;99.90;;;;;;5124563;27;20031;-82
2022/01/12 01:00:25;;;;;;;142.93;35.72;;;3.20;99.90;;;;;;5127973;27;20520;-82
2022/01/12 01:02:51;;;;;;;175.35;35.75;;;3.20;99.90;;;;;;5124691;27;20038;-81
2022/01/12 01:05:21;;;;;;;173.98;38.28;;;3.20;99.90;;;;;;5123440;27;20113;-82
2022/01/12 01:07:47;;;;;;;234.13;37.40;;;3.20;99.90;;;;;;5111252;27;20022;-82
2022/01/12 01:10:21;;;;;;;245.25;36.38;;;3.20;99.90;;;;;;5131978;27;20050;-82
2022/01/12 01:12:46;;;;;;;188.30;36.22;;;3.30;99.90;;;;;;5133404;27;20047;-82
2022/01/12 01:15:15;;;;;;;236.00;35.55;;;3.20;99.90;;;;;;5109564;27;20361;-82
2022/01/12 01:25:47;;;;;;;277.38;37.33;;;3.30;99.90;;;;;;5118412;27;20096;-81
2022/01/12 01:28:15;;;;;;;219.90;37.45;;;3.30;99.90;;;;;;5126941;27;20039;-82
2022/01/12 01:30:44;;;;;;;256.65;36.47;;;3.30;99.90;;;;;;5114914;27;20046;-81
2022/01/12 01:33:11;;;;;;;283.52;38.30;;;3.30;99.90;;;;;;5114870;27;20080;-82
2022/01/12 01:35:50;;;;;;;248.40;35.72;;;3.30;99.90;;;;;;5128466;27;20507;-82
2022/01/12 01:38:15;;;;;;;269.40;37.30;;;3.30;99.90;;;;;;5099811;27;20122;-81
2022/01/12 01:40:42;;;;;;;264.00;37.08;;;3.30;99.90;;;;;;5128175;27;20119;-81
2022/01/12 01:43:18;;;;;;;297.88;36.65;;;3.30;99.90;;;;;;5127618;27;20068;-82
2022/01/12 01:53:57;;;;;;;223.80;34.35;;;3.40;99.90;;;;;;5117816;27;20034;-81
2022/01/12 01:56:23;;;;;;;256.33;35.58;;;3.40;99.90;;;;;;5112964;27;20038;-82
2022/01/12 01:58:49;;;;;;;332.77;35.72;;;3.40;99.90;;;;;;5130228;27;20034;-82
2022/01/12 02:01:15;;;;;;;379.73;39.47;;;3.40;99.90;;;;;;5118247;27;20054;-82
2022/01/12 02:03:41;;;;;;;392.60;37.15;;;3.40;99.90;;;;;;5109637;27;20034;-82
2022/01/12 02:06:08;;;;;;;343.48;38.28;;;3.40;99.90;;;;;;5121101;27;20042;-81
2022/01/12 02:08:35;;;;;;;304.00;38.10;;;3.40;99.90;;;;;;5129301;27;20064;-81
2022/01/12 02:11:02;;;;;;;276.60;36.72;;;3.50;99.90;;;;;;5115324;27;20479;-82
2022/01/12 02:13:27;;;;;;;471.40;42.08;;;3.50;99.90;;;;;;5114317;27;20035;-81
2022/01/12 02:15:55;;;;;;;227.43;34.42;;;3.40;99.90;;;;;;5113885;27;20385;-82
2022/01/12 02:18:36;;;;;;;252.88;36.03;;;3.50;99.90;;;;;;5129834;27;20081;-82
2022/01/12 02:40:25;;;;;;;177.32;31.33;;;3.50;99.90;;;;;;5120152;27;20074;-81
2022/01/12 02:43:37;;;;;;;301.45;32.13;;;3.50;99.90;;;;;;5117043;27;20061;-82
2022/01/12 02:50:41;;;;;;;188.93;32.13;;;3.40;99.90;;;;;;5119127;27;20125;-81
2022/01/12 02:54:21;;;;;;;157.65;30.42;;;3.30;99.90;;;;;;5085022;27;20129;-79
2022/01/12 02:56:47;;;;;;;109.45;28.30;;;3.30;99.90;;;;;;5128056;27;20114;-79
2022/01/12 02:59:13;;;;;;;219.02;31.58;;;3.30;99.90;;;;;;5130516;27;20107;-79
2022/01/12 03:04:22;;;;;;;231.60;31.60;;;3.30;99.90;;;;;;5126212;27;20095;-79
2022/01/12 03:06:50;;;;;;;159.13;29.52;;;3.30;99.90;;;;;;5119474;28;20031;-80
2022/01/12 03:09:16;;;;;;;235.68;31.08;;;3.30;99.90;;;;;;5120732;27;20122;-80
2022/01/12 03:11:41;;;;;;;144.23;32.83;;;3.30;99.90;;;;;;5099072;27;20450;-82
2022/01/12 03:14:07;;;;;;;143.05;31.40;;;3.30;99.90;;;;;;5105240;27;20113;-81
2022/01/12 03:16:33;;;;;;;129.45;30.23;;;3.30;99.90;;;;;;5121729;27;20039;-82
2022/01/12 03:19:01;;;;;;;150.40;31.08;;;3.30;99.90;;;;;;5100142;27;20266;-82
2022/01/12 03:21:34;;;;;;;463.80;39.22;;;3.20;99.90;;;;;;5107704;27;20048;-82
2022/01/12 03:24:00;;;;;;;392.38;36.55;;;3.20;99.90;;;;;;5129244;27;20344;-82
2022/01/12 03:26:28;;;;;;;265.83;30.85;;;3.20;99.90;;;;;;5129580;27;20031;-82
2022/01/12 03:28:55;;;;;;;501.30;34.75;;;3.10;99.90;;;;;;5105583;27;20031;-82
2022/01/12 03:31:24;;;;;;;618.50;35.70;;;3.00;99.90;;;;;;5125618;27;20064;-82
2022/01/12 03:39:05;;;;;;;921.95;48.42;;;2.80;99.90;;;;;;5129091;27;20095;-82
2022/01/12 03:41:34;;;;;;;938.95;45.83;;;2.80;99.90;;;;;;5113751;27;20047;-81
2022/01/12 03:44:02;;;;;;;844.90;40.13;;;2.80;99.90;;;;;;5112897;27;20035;-82
2022/01/12 03:46:36;;;;;;;1140.57;52.28;;;2.70;99.90;;;;;;5108423;27;20039;-82
2022/01/12 03:49:02;;;;;;;880.55;41.95;;;2.70;99.90;;;;;;5107416;27;20035;-82
2022/01/12 03:51:28;;;;;;;965.20;43.22;;;2.70;99.90;;;;;;5102301;27;20104;-82
2022/01/12 03:53:53;;;;;;;804.25;37.53;;;2.60;99.90;;;;;;5113233;27;20043;-82
2022/01/12 03:56:19;;;;;;;682.97;34.00;;;2.60;99.90;;;;;;5112262;27;20038;-82
2022/01/12 03:58:44;;;;;;;790.35;41.80;;;2.50;99.90;;;;;;5130139;27;20395;-82
2022/01/12 04:01:10;;;;;;;1179.90;52.38;;;2.50;99.90;;;;;;5134009;27;20527;-82
2022/01/12 04:03:43;;;;;;;939.90;47.00;;;2.50;99.90;;;;;;5122713;27;20042;-81
2022/01/12 04:08:53;;;;;;;485.65;28.25;;;2.40;99.90;;;;;;5123342;27;20091;-81
2022/01/12 04:11:19;;;;;;;685.58;40.90;;;2.30;99.90;;;;;;5125213;27;20070;-81
2022/01/12 04:13:47;;;;;;;636.33;31.45;;;2.30;99.90;;;;;;5133094;27;20114;-81
2022/01/12 04:16:13;;;;;;;689.70;34.17;;;2.30;99.90;;;;;;5126070;27;20443;-81
2022/01/12 04:18:40;;;;;;;697.03;36.65;;;2.20;99.90;;;;;;5127239;27;20038;-81
2022/01/12 04:21:08;;;;;;;606.33;32.15;;;2.20;99.90;;;;;;5120461;27;20031;-81
2022/01/12 04:23:35;;;;;;;459.23;26.58;;;2.20;99.90;;;;;;5128737;27;20039;-81
2022/01/12 04:26:08;;;;;;;233.05;20.45;;;2.10;99.90;;;;;;5123708;27;20035;-81
2022/01/12 04:28:35;;;;;;;609.10;33.87;;;2.10;99.90;;;;;;5119139;27;20087;-81
2022/01/12 04:31:00;;;;;;;569.38;30.27;;;2.00;99.90;;;;;;5123967;27;20074;-82
2022/01/12 04:33:28;;;;;;;176.75;18.02;;;2.00;99.90;;;;;;5104413;27;20067;-81
2022/01/12 04:35:54;;;;;;;136.35;16.77;;;1.90;99.90;;;;;;5107854;27;20576;-81
2022/01/12 04:38:27;;;;;;;251.90;19.35;;;1.90;99.90;;;;;;5117158;27;20043;-81
2022/01/12 04:40:52;;;;;;;96.88;16.08;;;1.80;99.90;;;;;;5130899;27;20191;-81
2022/01/12 04:43:21;;;;;;;216.15;17.67;;;1.80;99.90;;;;;;5134283;27;20073;-81
2022/01/12 04:48:33;;;;;;;394.65;23.35;;;1.70;99.90;;;;;;5123207;27;20039;-81
2022/01/12 04:50:59;;;;;;;342.42;21.50;;;1.70;99.90;;;;;;5127950;27;20039;-81
2022/01/12 04:53:25;;;;;;;324.95;20.58;;;1.60;99.90;;;;;;5128479;27;20042;-81
2022/01/12 04:55:52;;;;;;;393.63;23.83;;;1.60;99.90;;;;;;5124315;27;20037;-81
2022/01/12 04:58:18;;;;;;;218.82;19.00;;;1.50;99.90;;;;;;5113227;27;20031;-81
2022/01/12 05:00:46;;;;;;;212.82;19.05;;;1.50;99.90;;;;;;5128815;27;20664;-81
2022/01/12 05:13:52;;;;;;;219.80;17.90;;;1.20;99.90;;;;;;5126717;27;20164;-81
2022/01/12 05:16:19;;;;;;;86.57;14.88;;;1.20;99.90;;;;;;5127100;27;20559;-81
2022/01/12 05:18:47;;;;;;;145.60;14.33;;;1.20;99.90;;;;;;5123691;27;20043;-81
2022/01/12 05:21:13;;;;;;;171.40;15.20;;;1.10;99.90;;;;;;5120430;27;20031;-81
2022/01/12 05:23:40;;;;;;;320.17;19.10;;;1.20;99.90;;;;;;5130775;27;20038;-81
2022/01/12 05:26:06;;;;;;;277.57;18.23;;;1.20;99.90;;;;;;5131713;27;20050;-81
2022/01/12 05:28:32;;;;;;;255.73;17.73;;;1.10;99.90;;;;;;5133949;27;20039;-81
2022/01/12 05:30:59;;;;;;;228.17;19.13;;;1.10;99.90;;;;;;5133636;27;20034;-81
2022/01/12 05:33:25;;;;;;;336.40;19.07;;;1.10;99.90;;;;;;5123738;27;20031;-81
2022/01/12 05:35:51;;;;;;;441.40;21.77;;;1.10;99.90;;;;;;5118674;27;20038;-81
2022/01/12 05:38:17;;;;;;;331.13;19.60;;;1.00;99.90;;;;;;5118632;27;20117;-81
2022/01/12 05:40:47;;;;;;;158.03;15.73;;;1.10;99.90;;;;;;5110800;27;20089;-81
2022/01/12 05:43:13;;;;;;;399.50;20.97;;;1.00;99.90;;;;;;5113531;27;20061;-81
2022/01/12 05:45:43;;;;;;;328.77;19.47;;;1.00;99.90;;;;;;5113967;27;20035;-81
2022/01/12 05:50:35;;;;;;;99.17;14.33;;;1.00;99.90;;;;;;5129723;27;20042;-81
2022/01/12 05:53:00;;;;;;;107.07;14.73;;;1.00;99.90;;;;;;5114599;27;20062;-81
2022/01/12 05:55:26;;;;;;;201.97;16.63;;;1.00;99.90;;;;;;5125772;27;20071;-81
2022/01/12 05:57:52;;;;;;;190.27;15.97;;;0.90;99.90;;;;;;5117075;27;20023;-81
2022/01/12 06:00:20;;;;;;;291.73;18.83;;;0.90;99.90;;;;;;5115690;27;20039;-81
2022/01/12 06:02:45;;;;;;;285.63;17.10;;;0.80;99.90;;;;;;5104400;27;20507;-81
2022/01/12 06:05:14;;;;;;;256.00;16.90;;;0.80;99.90;;;;;;5115320;27;20090;-82
2022/01/12 06:07:41;;;;;;;337.30;20.27;;;0.80;99.90;;;;;;5115306;27;20049;-82
2022/01/12 06:10:06;;;;;;;416.37;20.77;;;0.80;99.90;;;;;;5116526;27;20047;-81
2022/01/12 06:12:32;;;;;;;475.10;23.17;;;0.80;99.90;;;;;;5116700;27;20697;-81
2022/01/12 06:14:57;;;;;;;424.57;21.23;;;0.90;99.90;;;;;;5119761;27;20038;-81
2022/01/12 06:17:23;;;;;;;303.07;16.87;;;0.90;99.90;;;;;;5123392;27;20046;-82
2022/01/12 06:19:48;;;;;;;276.23;15.53;;;0.90;99.90;;;;;;5125742;27;20400;-82
2022/01/12 06:22:14;;;;;;;127.80;13.73;;;0.80;99.90;;;;;;5114994;27;20126;-82
2022/01/12 06:24:39;;;;;;;118.33;13.10;;;0.80;99.90;;;;;;5119499;27;20087;-82
2022/01/12 06:27:08;;;;;;;184.73;14.83;;;0.70;99.90;;;;;;5130692;27;20049;-82
2022/01/12 06:32:37;;;;;;;151.23;13.13;;;0.80;99.90;;;;;;5078987;28;20058;-82
2022/01/12 06:35:03;;;;;;;109.27;11.57;;;0.80;99.90;;;;;;5071489;28;20040;-82
2022/01/12 06:37:28;;;;;;;230.07;15.37;;;0.80;99.90;;;;;;5099618;27;20160;-82
2022/01/12 06:39:54;;;;;;;228.40;15.97;;;0.80;99.90;;;;;;5125937;27;20031;-82
2022/01/12 06:42:19;;;;;;;288.77;17.17;;;0.80;99.90;;;;;;5111124;28;20093;-82
2022/01/12 06:44:47;;;;;;;262.57;17.47;;;0.70;99.90;;;;;;5105669;28;20023;-82
2022/01/12 06:47:13;;;;;;;160.37;15.10;;;0.70;99.90;;;;;;5103106;28;20039;-82
2022/01/12 06:49:38;;;;;;;64.13;11.93;;;0.70;99.90;;;;;;5082516;28;20030;-82
2022/01/12 06:52:05;;;;;;;108.67;13.20;;;0.70;99.90;;;;;;5094746;28;20043;-83
2022/01/12 06:54:30;;;;;;;48.43;11.10;;;0.70;99.90;;;;;;5118873;27;20030;-83
2022/01/12 06:56:56;;;;;;;151.23;13.87;;;0.70;99.90;;;;;;5131483;27;20077;-83
2022/01/12 06:59:21;;;;;;;136.20;13.23;;;0.80;99.90;;;;;;5119545;27;20503;-83
2022/01/12 07:01:47;;;;;;;111.07;12.47;;;0.80;99.90;;;;;;5132734;27;20039;-83
2022/01/12 07:04:12;;;;;;;86.63;12.67;;;0.80;99.90;;;;;;5129220;27;20035;-83
2022/01/12 07:06:38;;;;;;;207.60;14.67;;;0.80;99.90;;;;;;5121857;27;20034;-83
2022/01/12 07:09:07;;;;;;;162.93;13.00;;;0.90;99.90;;;;;;5131497;27;20163;-83
2022/01/12 07:11:32;;;;;;;157.83;12.50;;;0.90;99.90;;;;;;5134426;27;20043;-83
2022/01/12 07:13:58;;;;;;;120.97;11.07;;;0.90;99.90;;;;;;5135888;27;20041;-83
2022/01/12 07:16:24;;;;;;;259.43;14.57;;;1.00;99.90;;;;;;5119509;27;20031;-83
2022/01/12 07:18:49;;;;;;;111.20;10.27;;;1.00;99.90;;;;;;5130570;27;20038;-83
2022/01/12 07:21:15;;;;;;;191.23;12.80;;;0.90;99.90;;;;;;5119759;27;20035;-83
2022/01/12 07:23:40;;;;;;;133.07;11.50;;;1.00;99.90;;;;;;5118328;27;20446;-84
2022/01/12 07:26:07;;;;;;;115.10;10.87;;;0.90;99.90;;;;;;5112516;27;20058;-83
2022/01/12 07:28:33;;;;;;;105.47;10.30;;;0.90;99.90;;;;;;5129183;27;20035;-84
2022/01/12 07:30:58;;;;;;;98.90;9.70;;;0.90;99.90;;;;;;5133229;27;20041;-84
2022/01/12 07:33:25;;;;;;;71.50;9.47;;;0.90;99.90;;;;;;5127984;27;20050;-83
2022/01/12 07:35:51;;;;;;;82.70;9.77;;;0.80;99.90;;;;;;5115807;27;20111;-83
2022/01/12 07:38:17;;;;;;;66.37;9.37;;;0.80;99.90;;;;;;5120664;27;20489;-83
2022/01/12 07:40:43;;;;;;;69.77;9.33;;;1.30;99.90;;;;;;5123430;27;20039;-83
2022/01/12 07:43:09;;;;;;;131.67;10.50;;;0.80;99.90;;;;;;5109378;27;20072;-83
2022/01/12 07:45:36;;;;;;;91.27;10.60;;;0.70;99.90;;;;;;5127103;27;20073;-83
2022/01/12 07:48:02;;;;;;;165.10;11.63;;;0.70;99.90;;;;;;5126034;27;20042;-83
2022/01/12 07:50:28;;;;;;;63.03;8.73;;;0.70;99.90;;;;;;5118156;27;20088;-83
2022/01/12 07:52:54;;;;;;;138.83;12.00;;;0.70;99.90;;;;;;5118267;27;20085;-83
2022/01/12 07:55:24;;;;;;;144.73;11.03;;;0.70;99.90;;;;;;5100751;27;20528;-83
2022/01/12 07:57:50;;;;;;;98.50;9.37;;;0.80;99.90;;;;;;5118008;27;20042;-82
2022/01/12 08:00:17;;;;;;;76.27;8.80;;;0.80;99.90;;;;;;5123402;27;20034;-83
2022/01/12 08:02:43;;;;;;;71.83;9.37;;;0.80;99.90;;;;;;5125717;27;20479;-82
2022/01/12 08:05:10;;;;;;;144.60;11.57;;;0.90;99.90;;;;;;5123523;27;20034;-83
2022/01/12 08:07:39;;;;;;;54.97;8.10;;;0.90;99.90;;;;;;5121801;27;20060;-83
2022/01/12 08:10:07;;;;;;;149.90;12.00;;;1.00;99.90;;;;;;5125795;27;20118;-82
2022/01/12 08:12:32;;;;;;;151.97;11.63;;;1.00;99.90;;;;;;5111413;27;20039;-83
2022/01/12 08:14:58;;;;;;;178.23;12.07;;;1.00;99.90;;;;;;5121095;27;20042;-83
2022/01/12 08:17:23;;;;;;;105.20;9.97;;;1.10;99.90;;;;;;5130121;27;20043;-82
2022/01/12 08:19:51;;;;;;;67.90;8.73;;;1.10;99.90;;;;;;5134390;27;20038;-83
2022/01/12 08:22:16;;;;;;;32.47;8.07;;;1.10;99.90;;;;;;5125779;27;20041;-83
2022/01/12 08:24:42;;;;;;;334.53;16.23;;;1.20;99.90;;;;;;5125773;27;20027;-82
2022/01/12 08:27:08;;;;;;;243.30;14.87;;;1.20;99.90;;;;;;5126767;27;20063;-82
2022/01/12 08:29:34;;;;;;;103.60;9.47;;;1.20;99.90;;;;;;5130894;27;20152;-82
2022/01/12 08:32:00;;;;;;;162.97;10.87;;;1.20;99.90;;;;;;5130341;27;20503;-82
2022/01/12 08:34:26;;;;;;;95.70;9.73;;;1.20;99.90;;;;;;5127392;27;20023;-82
2022/01/12 08:36:51;;;;;;;197.63;10.93;;;1.30;99.90;;;;;;5119779;27;20062;-82
2022/01/12 08:39:17;;;;;;;174.13;12.93;;;1.30;99.90;;;;;;5118259;27;20085;-81
2022/01/12 08:41:43;;;;;;;221.63;12.27;;;1.30;99.90;;;;;;5134090;27;20476;-81
2022/01/12 08:44:09;;;;;;;191.13;11.17;;;1.30;99.90;;;;;;5106454;27;20103;-82
2022/01/12 08:46:35;;;;;;;151.83;9.83;;;1.30;99.90;;;;;;5132794;27;20045;-81
2022/01/12 08:49:01;;;;;;;155.77;9.33;;;1.40;99.90;;;;;;5121817;27;20031;-81
2022/01/12 08:51:26;;;;;;;148.33;11.00;;;1.40;99.90;;;;;;5123414;27;20396;-81
2022/01/12 08:53:52;;;;;;;112.67;9.57;;;1.40;99.90;;;;;;5130690;27;20031;-81
2022/01/12 08:56:19;;;;;;;145.47;9.97;;;1.40;99.90;;;;;;5117663;27;20035;-81
2022/01/12 08:58:45;;;;;;;169.50;10.07;;;1.40;99.90;;;;;;5101123;27;20099;-82
2022/01/12 09:01:11;;;;;;;102.03;9.43;;;1.40;99.90;;;;;;5135168;27;20043;-82
2022/01/12 09:03:38;;;;;;;122.57;9.27;;;1.50;99.90;;;;;;5120654;27;20045;-82
2022/01/12 09:06:05;;;;;;;107.67;9.07;;;1.50;99.90;;;;;;5116047;27;20127;-81
2022/01/12 09:08:31;;;;;;;75.67;8.57;;;1.50;99.90;;;;;;5116270;27;20092;-81
2022/01/12 09:10:56;;;;;;;87.97;8.47;;;1.50;99.90;;;;;;5114241;27;20027;-81
2022/01/12 09:13:22;;;;;;;56.57;7.80;;;1.60;99.90;;;;;;5110924;27;20466;-80
2022/01/12 09:15:48;;;;;;;105.77;8.30;;;1.60;99.90;;;;;;5095712;27;20497;-81
2022/01/12 09:18:15;;;;;;;73.17;7.20;;;1.60;99.90;;;;;;5115233;27;20074;-81
2022/01/12 09:20:40;;;;;;;70.80;7.03;;;1.60;99.90;;;;;;5121461;27;20460;-82
2022/01/12 09:23:07;;;;;;;89.13;7.57;;;1.60;99.90;;;;;;5114793;27;20046;-81
2022/01/12 09:25:35;;;;;;;106.53;9.23;;;1.70;99.90;;;;;;5114880;27;20039;-81
2022/01/12 09:28:02;;;;;;;63.40;6.60;;;1.70;99.90;;;;;;5124385;27;20046;-81
2022/01/12 09:30:29;;;;;;;70.07;6.97;;;1.80;99.90;;;;;;5118936;27;20066;-82
2022/01/12 09:32:55;;;;;;;81.07;7.07;;;1.90;99.90;;;;;;5105868;27;20118;-81
2022/01/12 09:35:21;;;;;;;57.47;6.73;;;1.90;99.90;;;;;;5127639;27;20414;-81
2022/01/12 09:37:47;;;;;;;70.80;7.83;;;2.00;99.90;;;;;;5122828;27;20079;-83
2022/01/12 09:40:14;;;;;;;71.20;6.80;;;2.00;99.90;;;;;;5083767;28;21192;-81
2022/01/12 09:42:44;;;;;;;69.30;7.40;;;2.10;99.90;;;;;;5093888;28;20489;-80
2022/01/12 09:45:14;;;;;;;100.27;7.63;;;2.20;99.90;;;;;;5080944;28;20408;-81
2022/01/12 09:47:40;;;;;;;84.13;6.83;;;2.20;99.90;;;;;;5097997;28;20051;-81
2022/01/12 09:50:06;;;;;;;146.17;7.63;;;2.30;99.90;;;;;;5093374;28;20046;-81
2022/01/12 09:52:32;;;;;;;141.30;7.80;;;2.30;99.90;;;;;;5099163;28;20046;-81
2022/01/12 09:54:58;;;;;;;164.23;8.30;;;2.40;99.90;;;;;;5103010;27;20031;-81
2022/01/12 09:57:23;;;;;;;151.77;7.73;;;2.40;99.90;;;;;;5114259;27;20035;-81
2022/01/12 09:59:49;;;;;;;135.30;7.77;;;2.40;99.90;;;;;;5097800;27;20416;-81
2022/01/12 10:02:20;;;;;;;161.60;9.65;;;2.50;99.90;;;;;;5109511;27;20039;-81
2022/01/12 10:04:45;;;;;;;121.47;7.60;;;2.50;99.90;;;;;;5111590;28;20507;-81
2022/01/12 10:07:13;;;;;;;133.73;8.02;;;2.60;99.90;;;;;;5094741;28;20061;-80
2022/01/12 10:09:39;;;;;;;149.10;8.32;;;2.60;99.90;;;;;;5094445;28;20082;-80
2022/01/12 10:12:11;;;;;;;114.72;8.63;;;2.70;99.90;;;;;;5093484;28;20077;-81
2022/01/12 10:14:55;;;;;;;142.88;9.10;;;2.70;99.90;;;;;;5077762;28;20031;-81
2022/01/12 10:17:33;;;;;;;133.45;8.68;;;2.80;99.90;;;;;;5094126;28;20396;-81
2022/01/12 10:20:09;;;;;;;166.55;10.05;;;2.90;99.90;;;;;;5093322;28;20097;-81
2022/01/12 10:22:36;;;;;;;137.15;8.00;;;2.90;99.90;;;;;;5094222;28;20045;-81
2022/01/12 10:25:13;;;;;;;197.23;10.30;;;3.00;99.90;;;;;;5094438;28;20053;-81
2022/01/12 10:27:40;;;;;;;169.98;9.32;;;3.10;99.90;;;;;;5077180;28;20085;-81
2022/01/12 10:30:06;;;;;;;155.07;9.40;;;3.10;99.90;;;;;;5094673;28;20049;-80
2022/01/12 10:32:32;;;;;;;157.82;8.43;;;3.10;99.90;;;;;;5082125;28;20382;-81
2022/01/12 10:35:00;;;;;;;174.13;9.88;;;3.20;99.90;;;;;;5098591;28;20035;-81
2022/01/12 10:37:26;;;;;;;172.15;10.05;;;3.20;99.90;;;;;;5101211;28;20047;-81
2022/01/12 10:39:53;;;;;;;185.85;9.35;;;3.20;99.90;;;;;;5082001;28;20397;-81
2022/01/12 10:42:21;;;;;;;138.20;7.57;;;3.30;99.90;;;;;;5081344;28;20050;-81
2022/01/12 10:44:49;;;;;;;166.10;10.13;;;3.30;99.90;;;;;;5098028;28;20047;-81
2022/01/12 10:47:29;;;;;;;149.80;9.85;;;3.40;99.90;;;;;;5098748;28;20039;-81
2022/01/12 10:49:55;;;;;;;111.50;8.35;;;3.40;99.90;;;;;;5098354;28;20082;-81
2022/01/12 10:52:22;;;;;;;159.85;8.98;;;3.50;99.90;;;;;;5097896;28;20070;-82
2022/01/12 10:54:52;;;;;;;126.68;8.57;;;3.50;99.90;;;;;;5097641;28;20036;-82
2022/01/12 10:57:31;;;;;;;109.63;7.85;;;3.50;99.90;;;;;;5098199;28;20485;-82
2022/01/12 11:00:10;;;;;;;130.02;7.72;;;3.60;99.90;;;;;;5097688;28;20039;-82
2022/01/12 11:02:39;;;;;;;176.50;9.10;;;3.60;99.90;;;;;;5081450;28;20449;-82
2022/01/12 11:05:05;;;;;;;126.88;8.27;;;3.70;99.90;;;;;;5097762;28;20101;-82
2022/01/12 11:07:32;;;;;;;116.88;8.80;;;3.70;99.90;;;;;;5098222;28;20036;-82
2022/01/12 11:09:59;;;;;;;131.77;8.82;;;3.80;99.90;;;;;;5080121;28;20043;-81
2022/01/12 11:12:26;;;;;;;116.75;9.10;;;3.80;99.90;;;;;;5096059;28;20031;-82
2022/01/12 11:14:52;;;;;;;139.30;9.68;;;3.90;99.90;;;;;;5097430;28;20118;-81
2022/01/12 11:17:18;;;;;;;144.98;9.35;;;3.90;99.90;;;;;;5097277;28;20119;-82
2022/01/12 11:20:00;;;;;;;91.35;8.25;;;3.90;99.90;;;;;;5097393;28;20427;-81
2022/01/12 11:22:53;;;;;;;129.60;9.55;;;4.00;99.90;;;;;;5097126;28;20075;-81
2022/01/12 11:25:24;;;;;;;80.45;8.45;;;4.10;99.90;;;;;;5097749;28;20047;-81
2022/01/12 11:28:10;;;;;;;71.07;7.80;;;4.20;99.90;;;;;;5081380;28;20503;-81
2022/01/12 11:30:56;;;;;;;126.35;10.55;;;4.20;99.90;;;;;;5046723;28;20051;-82
2022/01/12 11:33:35;;;;;;;93.30;9.13;;;4.30;99.90;;;;;;5080673;28;20097;-82
2022/01/12 11:36:18;;;;;;;61.00;8.52;;;4.30;99.90;;;;;;5097886;28;20042;-81
2022/01/12 11:38:49;;;;;;;95.70;9.20;;;4.40;99.90;;;;;;5097523;28;20108;-82
2022/01/12 11:41:21;;;;;;;78.90;9.20;;;4.40;99.90;;;;;;5080106;28;20511;-82
2022/01/12 11:43:52;;;;;;;60.97;8.75;;;4.50;99.90;;;;;;5096684;28;20493;-82
2022/01/12 11:46:24;;;;;;;61.40;9.88;;;4.60;99.90;;;;;;5079464;28;20047;-83
2022/01/12 11:48:54;;;;;;;51.95;9.05;;;4.60;99.90;;;;;;5095542;28;20093;-82
2022/01/12 11:51:34;;;;;;;51.83;10.48;;;4.70;99.90;;;;;;5099618;28;20065;-82
2022/01/12 11:54:21;;;;;;;49.50;9.77;;;4.70;99.90;;;;;;5097568;28;20035;-82
2022/01/12 11:57:07;;;;;;;35.35;9.15;;;4.80;99.90;;;;;;5096524;28;20039;-83
2022/01/12 11:59:53;;;;;;;44.25;10.95;;;4.70;99.90;;;;;;5079413;28;20051;-83
2022/01/12 12:02:21;;;;;;;55.75;10.70;;;4.70;99.90;;;;;;5096555;28;20073;-82
2022/01/12 12:04:55;;;;;;;37.95;10.23;;;4.70;99.90;;;;;;5096676;28;20118;-82
2022/01/12 12:07:22;;;;;;;54.05;10.02;;;4.70;99.90;;;;;;5096545;28;20047;-83
2022/01/12 12:09:54;;;;;;;76.68;11.93;;;4.70;99.90;;;;;;5096778;28;20438;-82
2022/01/12 12:12:23;;;;;;;66.95;11.25;;;4.70;99.90;;;;;;5096182;28;20044;-82
2022/01/12 12:14:53;;;;;;;51.33;10.55;;;4.80;99.90;;;;;;5099714;27;20027;-82
2022/01/12 12:17:20;;;;;;;61.30;10.25;;;4.80;99.90;;;;;;5114127;27;20047;-82
2022/01/12 12:19:47;;;;;;;56.42;11.48;;;4.80;99.90;;;;;;5114447;27;20065;-82
2022/01/12 12:22:16;;;;;;;65.22;10.68;;;4.80;99.90;;;;;;5116281;27;20415;-82
2022/01/12 12:24:43;;;;;;;43.20;11.15;;;4.80;99.90;;;;;;5096998;27;20040;-82
2022/01/12 12:27:10;;;;;;;76.35;10.98;;;4.80;99.90;;;;;;5112688;28;20078;-82
2022/01/12 12:29:36;;;;;;;68.60;11.40;;;4.90;99.90;;;;;;5079074;28;20112;-82
2022/01/12 12:32:03;;;;;;;56.85;11.63;;;4.80;99.90;;;;;;5094698;28;20044;-82
2022/01/12 12:34:29;;;;;;;63.47;12.25;;;4.90;99.90;;;;;;5094393;28;20062;-82
2022/01/12 12:36:57;;;;;;;61.33;11.73;;;4.90;99.90;;;;;;5094826;28;20489;-83
2022/01/12 12:39:22;;;;;;;74.65;12.85;;;4.90;99.90;;;;;;5096947;27;20496;-83
2022/01/12 12:41:48;;;;;;;48.85;11.27;;;5.00;99.90;;;;;;5089882;28;20074;-83
2022/01/12 12:44:23;;;;;;;41.67;12.23;;;5.00;99.90;;;;;;5107482;27;20035;-82
2022/01/12 12:46:50;;;;;;;58.25;13.60;;;5.10;99.90;;;;;;5111536;27;20499;-82
2022/01/12 12:49:16;;;;;;;46.13;11.75;;;5.10;99.90;;;;;;5112828;27;20068;-83
2022/01/12 12:51:41;;;;;;;53.10;13.25;;;5.00;99.90;;;;;;5096162;27;20035;-82
2022/01/12 12:54:07;;;;;;;60.70;13.10;;;5.10;99.90;;;;;;5112920;27;20472;-83
2022/01/12 12:56:40;;;;;;;86.63;14.05;;;5.10;99.90;;;;;;5113970;27;20043;-83
2022/01/12 12:59:07;;;;;;;60.08;14.02;;;5.00;99.90;;;;;;5097727;27;20526;-83
2022/01/12 13:01:33;;;;;;;60.72;12.43;;;5.10;99.90;;;;;;5115448;27;20512;-84
2022/01/12 13:03:59;;;;;;;58.17;13.35;;;5.10;99.90;;;;;;5115282;27;20041;-83
2022/01/12 13:06:31;;;;;;;50.05;13.30;;;5.10;99.90;;;;;;5098402;27;20050;-83
2022/01/12 13:09:08;;;;;;;47.05;12.27;;;5.10;99.90;;;;;;5114433;27;20039;-83
2022/01/12 13:11:39;;;;;;;42.47;13.07;;;5.10;99.90;;;;;;5111460;28;20065;-83
2022/01/12 13:14:09;;;;;;;47.10;13.25;;;5.10;99.90;;;;;;5104888;27;20081;-83
2022/01/12 13:16:42;;;;;;;47.30;13.60;;;5.10;99.90;;;;;;5094028;28;20081;-83
2022/01/12 13:19:21;;;;;;;51.22;14.45;;;5.20;99.90;;;;;;5093344;28;20118;-83
2022/01/12 13:21:47;;;;;;;35.15;14.15;;;5.20;99.90;;;;;;5092396;28;20043;-83
2022/01/12 13:24:13;;;;;;;43.80;13.10;;;5.30;99.90;;;;;;5093585;28;20043;-83
2022/01/12 13:26:40;;;;;;;56.50;14.65;;;5.10;99.90;;;;;;5093377;28;20127;-84
2022/01/12 13:29:08;;;;;;;45.55;13.30;;;5.10;99.90;;;;;;5093720;28;20050;-83
2022/01/12 13:31:34;;;;;;;27.63;11.35;;;5.00;99.90;;;;;;5104546;28;20483;-84
2022/01/12 13:34:01;;;;;;;44.88;13.00;;;5.00;99.90;;;;;;5126117;27;20381;-83
2022/01/12 13:36:29;;;;;;;41.95;12.20;;;5.00;99.90;;;;;;5117766;27;20467;-82
2022/01/12 13:39:04;;;;;;;43.00;12.90;;;4.90;99.90;;;;;;5120206;27;20030;-83
2022/01/12 13:41:36;;;;;;;34.95;10.80;;;4.80;99.90;;;;;;5118062;27;20377;-82
2022/01/12 13:44:11;;;;;;;36.75;12.00;;;4.90;99.90;;;;;;5114472;27;20500;-82
2022/01/12 13:46:39;;;;;;;28.75;11.20;;;4.90;99.90;;;;;;5135979;27;20042;-82
2022/01/12 13:51:42;;;;;;;29.75;10.60;;;4.80;99.90;;;;;;5118608;27;20039;-82
2022/01/12 13:54:13;;;;;;;47.97;11.90;;;4.80;99.90;;;;;;5114225;27;20039;-82
2022/01/12 13:56:44;;;;;;;38.05;10.75;;;4.70;99.90;;;;;;5126990;27;20034;-83